Time;durP1;ratioP1;P1;durP2;ratioP2;P2;SDS_P1;SDS_P2;PMS_P1;PMS_P2;Temp;Humidity;BMP_temperature;BMP_pressure;BME280_temperature;BME280_humidity;BME280_pressure;Samples;Min_cycle;Max_cycle;Signal;HPM_P1;HPM_P2
2022/09/11 00:00:51;;;;;;;24.35;19.60;;;;;;;16.76;97.38;101906.38;5008716;28;20085;-65
2022/09/11 00:03:18;;;;;;;33.22;21.63;;;;;;;16.78;97.49;101899.19;5009237;28;20397;-64
2022/09/11 00:05:44;;;;;;;29.02;20.20;;;;;;;16.77;97.51;101908.09;5009893;28;20026;-64
2022/09/11 00:08:12;;;;;;;29.98;19.65;;;;;;;16.74;97.75;101913.53;5009056;28;20408;-66
2022/09/11 00:10:39;;;;;;;31.33;21.02;;;;;;;16.71;97.40;101904.84;5008011;28;20030;-65
2022/09/11 00:13:06;;;;;;;29.42;19.98;;;;;;;16.66;97.26;101899.72;5008928;28;20168;-65
2022/09/11 00:15:39;;;;;;;28.05;20.90;;;;;;;16.66;97.38;101899.72;5009543;28;20564;-64
2022/09/11 00:18:06;;;;;;;35.80;22.83;;;;;;;16.66;97.75;101900.59;5007795;28;20026;-64
2022/09/11 00:20:32;;;;;;;32.28;20.65;;;;;;;16.65;97.76;101898.84;5008322;28;20030;-63
2022/09/11 00:23:03;;;;;;;30.63;22.52;;;;;;;16.65;97.80;101903.31;5008974;28;20480;-66
2022/09/11 00:25:33;;;;;;;33.05;22.63;;;;;;;16.64;98.38;101899.78;5008099;28;20053;-64
2022/09/11 00:27:58;;;;;;;32.40;22.52;;;;;;;16.65;97.98;101905.97;4989755;28;20092;-66
2022/09/11 00:30:24;;;;;;;31.23;22.70;;;;;;;16.63;97.87;101906.03;4971512;28;20532;-65
2022/09/11 00:32:49;;;;;;;36.78;24.02;;;;;;;16.61;98.31;101912.34;4991892;28;20029;-66
2022/09/11 00:35:14;;;;;;;32.97;23.73;;;;;;;16.62;98.34;101912.28;5009876;28;20037;-65
2022/09/11 00:37:40;;;;;;;30.58;22.70;;;;;;;16.69;98.71;101904.91;5008384;28;20026;-63
2022/09/11 00:40:06;;;;;;;32.33;22.13;;;;;;;16.82;99.16;101905.22;5007829;28;20022;-65
2022/09/11 00:42:31;;;;;;;39.65;24.77;;;;;;;16.93;99.03;101904.78;5008831;28;20365;-65
2022/09/11 00:44:59;;;;;;;40.03;25.77;;;;;;;17.01;99.43;101904.44;5008460;28;20037;-65
2022/09/11 00:47:25;;;;;;;43.15;27.40;;;;;;;17.05;99.19;101900.72;5008670;28;20022;-64
2022/09/11 00:49:53;;;;;;;32.53;24.38;;;;;;;17.07;99.26;101898.88;5008856;28;20033;-64
2022/09/11 00:52:25;;;;;;;35.83;24.50;;;;;;;17.13;98.84;101895.91;5008602;28;20042;-63
2022/09/11 00:54:55;;;;;;;31.88;21.63;;;;;;;17.27;98.26;101899.75;4991159;28;20030;-66
2022/09/11 00:57:23;;;;;;;27.00;21.30;;;;;;;17.34;97.61;101900.34;5007834;28;20105;-66
2022/09/11 00:59:51;;;;;;;30.02;19.98;;;;;;;17.37;97.66;101906.41;5008005;28;20034;-64
2022/09/11 01:02:18;;;;;;;31.30;20.02;;;;;;;17.47;97.12;101908.63;5009667;28;20032;-63
2022/09/11 01:04:44;;;;;;;34.15;20.77;;;;;;;17.45;96.89;101910.53;4991582;28;20022;-65
2022/09/11 01:07:10;;;;;;;27.35;18.88;;;;;;;17.46;97.03;101902.44;4999087;28;20118;-67
2022/09/11 01:09:35;;;;;;;27.70;20.58;;;;;;;17.51;96.63;101911.09;4988745;28;20033;-65
2022/09/11 01:12:27;;;;;;;28.75;19.60;;;;;;;17.51;96.87;101903.09;4971315;28;20353;-63
2022/09/11 01:15:05;;;;;;;30.73;21.15;;;;;;;17.49;96.57;101904.13;5003900;28;20046;-65
2022/09/11 01:17:53;;;;;;;25.70;20.00;;;;;;;17.63;95.83;101900.78;4990944;28;20499;-64
2022/09/11 01:20:37;;;;;;;30.73;21.80;;;;;;;17.43;96.32;101900.78;5007955;28;20049;-64
2022/09/11 01:23:21;;;;;;;29.08;21.48;;;;;;;17.29;96.26;101905.91;5009093;28;20381;-64
2022/09/11 01:26:14;;;;;;;27.85;19.02;;;;;;;17.22;95.70;101904.44;5007549;28;20042;-64
2022/09/11 01:28:48;;;;;;;28.35;20.92;;;;;;;17.06;95.83;101910.41;5008134;28;20128;-62
2022/09/11 01:31:16;;;;;;;36.10;21.20;;;;;;;16.97;96.25;101900.16;5008884;28;20025;-63
2022/09/11 01:33:45;;;;;;;24.63;18.80;;;;;;;16.98;96.37;101907.25;4990593;28;20097;-64
2022/09/11 01:36:29;;;;;;;28.63;20.38;;;;;;;16.93;96.57;101905.66;5007901;28;20045;-64
2022/09/11 01:38:57;;;;;;;27.17;19.80;;;;;;;16.89;96.29;101912.00;4992842;28;20050;-64
2022/09/11 01:41:46;;;;;;;28.98;20.55;;;;;;;16.83;97.20;101912.31;5009983;28;20041;-64
2022/09/11 01:44:17;;;;;;;25.73;20.85;;;;;;;16.77;97.17;101912.56;5012027;28;20385;-65
2022/09/11 01:46:48;;;;;;;30.77;20.45;;;;;;;16.75;97.17;101909.97;4994335;28;20030;-64
2022/09/11 01:49:17;;;;;;;31.25;22.20;;;;;;;16.67;97.59;101912.97;4994591;28;20401;-65
2022/09/11 01:51:43;;;;;;;28.15;20.45;;;;;;;16.63;97.51;101903.38;4993938;28;20041;-67
2022/09/11 01:54:14;;;;;;;31.35;22.17;;;;;;;16.56;97.20;101915.22;4992445;28;20041;-65
2022/09/11 01:56:50;;;;;;;31.45;23.40;;;;;;;16.51;97.52;101909.22;4990344;28;20030;-65
2022/09/11 01:59:16;;;;;;;33.72;22.42;;;;;;;16.51;97.67;101906.56;4992052;28;20188;-67
2022/09/11 02:01:49;;;;;;;31.02;22.33;;;;;;;16.53;97.92;101910.03;4995300;28;20037;-64
2022/09/11 02:04:20;;;;;;;31.45;21.92;;;;;;;16.49;97.70;101914.59;4995194;28;20368;-65
2022/09/11 02:06:52;;;;;;;37.33;24.45;;;;;;;16.63;97.98;101915.81;4993711;28;20092;-65
2022/09/11 02:09:21;;;;;;;39.15;25.75;;;;;;;16.60;98.14;101916.81;5011303;28;20392;-66
2022/09/11 02:11:48;;;;;;;35.25;23.70;;;;;;;16.57;97.70;101924.03;4994696;28;20041;-64
2022/09/11 02:14:44;;;;;;;35.22;24.08;;;;;;;16.58;97.99;101921.31;5011230;28;20030;-64
2022/09/11 02:17:47;;;;;;;38.05;24.58;;;;;;;16.53;98.27;101926.84;4989617;28;20397;-65
2022/09/11 02:20:13;;;;;;;37.55;24.98;;;;;;;16.44;98.07;101927.25;5011592;28;20044;-64
2022/09/11 02:22:39;;;;;;;42.03;26.67;;;;;;;16.41;98.22;101928.22;5010229;28;20141;-65
2022/09/11 02:25:04;;;;;;;32.90;22.60;;;;;;;16.39;98.03;101930.09;4993747;28;20457;-64
2022/09/11 02:27:30;;;;;;;35.40;22.52;;;;;;;16.38;98.33;101924.81;5010495;28;20029;-65
2022/09/11 02:29:58;;;;;;;37.50;25.60;;;;;;;16.35;98.66;101923.16;5010656;28;20022;-64
2022/09/11 02:32:25;;;;;;;42.63;26.58;;;;;;;16.33;98.62;101932.13;4993074;28;20507;-67
2022/09/11 02:34:53;;;;;;;40.85;26.65;;;;;;;16.30;98.63;101935.78;5010076;28;20595;-65
2022/09/11 02:37:22;;;;;;;35.37;25.00;;;;;;;16.26;98.35;101924.38;5011109;28;20026;-65
2022/09/11 02:40:04;;;;;;;35.67;23.10;;;;;;;16.21;98.33;101936.13;5010317;28;20025;-64
2022/09/11 02:42:57;;;;;;;35.20;24.27;;;;;;;16.15;98.11;101927.50;5010460;28;20472;-62
2022/09/11 02:45:34;;;;;;;43.75;25.52;;;;;;;16.12;98.41;101927.63;4993685;28;20022;-66
2022/09/11 02:48:09;;;;;;;34.70;24.15;;;;;;;16.15;98.59;101929.28;4993295;28;20025;-65
2022/09/11 02:50:58;;;;;;;41.75;25.60;;;;;;;16.13;99.03;101928.47;5007117;28;20149;-65
2022/09/11 02:53:46;;;;;;;;;;;;;;;16.17;99.02;101930.09;4999065;28;20044;-66
2022/09/11 02:56:25;;;;;;;33.40;23.25;;;;;;;16.19;98.44;101928.22;5009505;28;19940;-65
2022/09/11 02:59:05;;;;;;;37.75;26.08;;;;;;;16.21;98.59;101930.81;4992547;28;20037;-65
2022/09/11 03:01:45;;;;;;;43.45;27.45;;;;;;;16.13;99.25;101937.31;5009959;28;20034;-65
2022/09/11 03:04:10;;;;;;;42.67;26.70;;;;;;;16.11;99.10;101933.88;5010109;28;20061;-65
2022/09/11 03:06:36;;;;;;;44.30;27.08;;;;;;;16.05;99.39;101936.78;5010790;28;20453;-65
2022/09/11 03:09:01;;;;;;;42.45;27.02;;;;;;;16.00;99.33;101944.03;4992508;28;20084;-64
2022/09/11 03:11:26;;;;;;;44.92;26.35;;;;;;;15.96;99.22;101943.31;5009170;28;20030;-66
2022/09/11 03:13:52;;;;;;;37.30;24.05;;;;;;;15.95;98.99;101940.69;5010637;28;20038;-66
2022/09/11 03:16:19;;;;;;;38.15;24.55;;;;;;;15.95;98.95;101943.34;5010279;28;20117;-66
2022/09/11 03:18:44;;;;;;;36.20;24.05;;;;;;;15.94;99.32;101950.44;5010192;28;20052;-65
2022/09/11 03:21:10;;;;;;;42.88;26.80;;;;;;;15.91;99.03;101954.09;5010673;28;20477;-64
2022/09/11 03:23:35;;;;;;;40.60;23.83;;;;;;;15.88;99.62;101946.25;5009816;28;20026;-65
2022/09/11 03:26:00;;;;;;;35.78;23.50;;;;;;;15.97;99.52;101950.34;5009328;28;20053;-65
2022/09/11 03:28:26;;;;;;;44.85;25.88;;;;;;;15.97;99.76;101952.13;5010156;28;20038;-65
2022/09/11 03:30:54;;;;;;;46.95;23.13;;;;;;;15.98;100.00;101946.75;5009838;28;20030;-64
2022/09/11 03:33:19;;;;;;;42.22;22.95;;;;;;;15.93;100.00;101946.06;5008129;28;20037;-64
2022/09/11 03:35:46;;;;;;;38.78;23.05;;;;;;;15.86;100.00;101942.75;5009382;28;20036;-63
2022/09/11 03:38:11;;;;;;;53.13;21.67;;;;;;;15.85;99.93;101942.81;4991527;28;20034;-65
2022/09/11 03:40:37;;;;;;;27.10;19.02;;;;;;;15.84;99.84;101934.00;5008734;28;20037;-63
2022/09/11 03:43:03;;;;;;;63.20;19.92;;;;;;;15.83;100.00;101942.88;5008973;28;20022;-66
2022/09/11 03:45:28;;;;;;;53.25;20.33;;;;;;;15.80;100.00;101937.69;5009407;28;20030;-65
2022/09/11 03:47:53;;;;;;;47.33;21.13;;;;;;;15.76;100.00;101942.25;5008923;28;20025;-65
2022/09/11 03:50:19;;;;;;;50.60;21.42;;;;;;;15.72;99.94;101935.34;5009480;28;20030;-65
2022/09/11 03:52:44;;;;;;;27.02;17.50;;;;;;;15.67;99.52;101939.94;5009182;28;20026;-66
2022/09/11 03:55:09;;;;;;;31.08;19.60;;;;;;;15.70;99.92;101944.28;5008602;28;20040;-65
2022/09/11 03:57:36;;;;;;;33.88;19.35;;;;;;;15.71;99.80;101938.06;5008858;28;20053;-65
2022/09/11 04:00:03;;;;;;;69.22;22.55;;;;;;;15.71;100.00;101935.41;5009127;28;20046;-66
2022/09/11 04:02:28;;;;;;;48.55;19.58;;;;;;;15.69;100.00;101938.09;5008062;28;20045;-65
2022/09/11 04:04:53;;;;;;;35.85;21.55;;;;;;;15.70;100.00;101933.63;5009344;28;20096;-65
2022/09/11 04:07:19;;;;;;;34.72;21.50;;;;;;;15.66;100.00;101933.75;5008317;28;20026;-65
2022/09/11 04:09:45;;;;;;;32.17;20.48;;;;;;;15.59;99.76;101931.41;5008707;28;20053;-62
2022/09/11 04:12:11;;;;;;;33.83;21.88;;;;;;;15.58;99.95;101927.88;5005700;28;20030;-64
2022/09/11 04:14:37;;;;;;;27.90;18.50;;;;;;;15.65;99.71;101936.47;5008697;28;20473;-66
2022/09/11 04:17:02;;;;;;;40.70;24.13;;;;;;;15.63;100.00;101936.53;5007826;28;20105;-67
2022/09/11 04:19:28;;;;;;;37.55;23.02;;;;;;;15.63;100.00;101939.19;5008003;28;20033;-68
2022/09/11 04:21:53;;;;;;;34.33;20.85;;;;;;;15.63;100.00;101936.53;5007386;28;20018;-67
2022/09/11 04:24:19;;;;;;;34.78;22.20;;;;;;;15.61;100.00;101938.41;5008416;28;20119;-67
2022/09/11 04:26:45;;;;;;;37.53;22.45;;;;;;;15.56;100.00;101947.47;5009342;28;20026;-65
2022/09/11 04:29:10;;;;;;;37.25;23.15;;;;;;;15.48;100.00;101945.09;5009027;28;20477;-68
2022/09/11 04:31:36;;;;;;;37.60;21.70;;;;;;;15.46;99.82;101949.56;5008769;28;20033;-62
2022/09/11 04:34:01;;;;;;;34.30;20.77;;;;;;;15.44;99.65;101951.44;4991636;28;20022;-69
2022/09/11 04:36:28;;;;;;;37.33;21.88;;;;;;;15.37;99.96;101951.66;5008606;28;20045;-69
2022/09/11 04:38:56;;;;;;;32.72;21.00;;;;;;;15.43;99.85;101960.31;5008360;28;20025;-68
2022/09/11 04:41:22;;;;;;;40.85;21.98;;;;;;;15.53;100.00;101967.91;5009010;28;20036;-68
2022/09/11 04:43:48;;;;;;;36.65;20.83;;;;;;;15.60;100.00;101972.97;5009375;28;20100;-67
2022/09/11 04:46:15;;;;;;;24.92;16.55;;;;;;;15.59;100.00;101965.94;5009047;28;20057;-68
2022/09/11 04:48:44;;;;;;;68.43;21.08;;;;;;;15.50;100.00;101967.16;5008599;28;20036;-67
2022/09/11 04:51:10;;;;;;;46.40;21.58;;;;;;;15.46;100.00;101971.69;5009070;28;20362;-68
2022/09/11 04:53:36;;;;;;;36.67;15.60;;;;;;;15.43;100.00;101965.63;4990293;28;20034;-67
2022/09/11 04:56:09;;;;;;;57.85;18.63;;;;;;;15.36;100.00;101965.00;5007949;28;20141;-67
2022/09/11 04:58:35;;;;;;;43.72;15.57;;;;;;;15.37;100.00;101972.03;4991151;28;20176;-68
2022/09/11 05:01:09;;;;;;;63.22;17.25;;;;;;;15.26;100.00;101975.09;5008231;28;20041;-68
2022/09/11 05:03:34;;;;;;;48.63;15.05;;;;;;;15.26;100.00;101975.09;5008895;28;20018;-68
2022/09/11 05:06:04;;;;;;;67.47;16.55;;;;;;;15.27;100.00;101976.81;5008498;28;20030;-67
2022/09/11 05:08:32;;;;;;;96.80;20.60;;;;;;;15.24;100.00;101977.81;5008486;28;20650;-64
2022/09/11 05:10:58;;;;;;;116.65;21.52;;;;;;;15.24;100.00;101990.19;5007644;28;20033;-66
2022/09/11 05:13:24;;;;;;;71.25;20.15;;;;;;;15.23;100.00;101988.47;5009366;28;20038;-69
2022/09/11 05:15:49;;;;;;;61.28;18.92;;;;;;;15.21;100.00;101991.19;5012274;28;20095;-68
2022/09/11 05:18:15;;;;;;;27.77;15.77;;;;;;;15.18;100.00;102003.69;5012338;28;20411;-67
2022/09/11 05:20:40;;;;;;;26.95;15.80;;;;;;;15.25;100.00;102006.06;5012570;28;20046;-70
2022/09/11 05:23:06;;;;;;;45.47;15.60;;;;;;;15.34;100.00;102009.31;5012118;28;20056;-68
2022/09/11 05:25:31;;;;;;;21.25;14.27;;;;;;;15.35;100.00;102013.72;5011183;28;20053;-68
2022/09/11 05:27:57;;;;;;;78.43;14.95;;;;;;;15.45;99.31;102006.28;5011673;28;20395;-66
2022/09/11 05:30:22;;;;;;;55.97;15.13;;;;;;;15.18;99.76;102014.31;5011698;28;20739;-68
2022/09/11 05:32:53;;;;;;;80.88;16.13;;;;;;;15.05;100.00;102013.88;5012667;28;20037;-69
2022/09/11 05:35:19;;;;;;;98.38;15.05;;;;;;;15.02;100.00;102012.19;5012223;28;20026;-65
2022/09/11 05:37:45;;;;;;;113.93;17.70;;;;;;;14.91;100.00;102012.53;5012542;28;20053;-67
2022/09/11 05:40:11;;;;;;;19.17;11.57;;;;;;;14.94;100.00;102015.09;4993951;28;20061;-67
2022/09/11 05:42:37;;;;;;;50.42;15.43;;;;;;;14.96;100.00;102025.66;5012046;28;20105;-67
2022/09/11 05:45:03;;;;;;;98.05;20.63;;;;;;;14.85;100.00;102024.22;5011531;28;20026;-65
2022/09/11 05:47:28;;;;;;;23.85;15.73;;;;;;;14.90;100.00;102022.28;5011566;28;20033;-68
2022/09/11 05:49:54;;;;;;;18.73;14.95;;;;;;;14.97;100.00;102022.97;5012098;28;20030;-68
2022/09/11 05:52:19;;;;;;;28.55;15.25;;;;;;;15.01;100.00;102021.94;5011484;28;20021;-64
2022/09/11 05:54:45;;;;;;;29.60;16.08;;;;;;;15.05;100.00;102030.63;5011225;28;20073;-68
2022/09/11 05:57:10;;;;;;;36.42;16.77;;;;;;;15.07;100.00;102025.28;5011357;28;20018;-69
2022/09/11 05:59:35;;;;;;;38.58;17.20;;;;;;;15.15;100.00;102028.56;5011001;28;20053;-67
2022/09/11 06:02:01;;;;;;;21.55;14.90;;;;;;;15.27;100.00;102022.81;5011549;28;20026;-68
2022/09/11 06:04:27;;;;;;;25.38;15.90;;;;;;;15.44;100.00;102025.81;5011357;28;20473;-65
2022/09/11 06:06:53;;;;;;;32.25;16.67;;;;;;;15.60;100.00;102027.00;5011388;28;20064;-67
2022/09/11 06:09:18;;;;;;;51.72;20.17;;;;;;;15.67;100.00;102030.28;5011010;28;20052;-64
2022/09/11 06:11:43;;;;;;;88.68;21.70;;;;;;;15.69;100.00;102030.22;5011617;28;20037;-67
2022/09/11 06:14:09;;;;;;;38.70;19.05;;;;;;;15.73;100.00;102031.84;5010967;28;20069;-68
2022/09/11 06:16:34;;;;;;;37.10;20.75;;;;;;;15.81;100.00;102037.75;5011065;28;20105;-67
2022/09/11 06:18:59;;;;;;;62.08;20.92;;;;;;;15.78;100.00;102035.22;5011522;28;20113;-66
2022/09/11 06:21:26;;;;;;;36.92;20.73;;;;;;;15.84;100.00;102034.97;5010907;28;20101;-67
2022/09/11 06:23:52;;;;;;;49.88;20.85;;;;;;;15.85;100.00;102041.16;5010231;28;20476;-67
2022/09/11 06:26:22;;;;;;;31.65;19.75;;;;;;;15.95;100.00;102041.69;5011718;28;20026;-67
2022/09/11 06:28:49;;;;;;;33.40;21.00;;;;;;;16.03;100.00;102039.63;4994611;28;20054;-67
2022/09/11 06:31:18;;;;;;;36.58;21.10;;;;;;;16.24;100.00;102032.63;5011146;28;20030;-68
2022/09/11 06:33:44;;;;;;;38.88;21.38;;;;;;;16.38;100.00;102039.19;5010537;28;20060;-67
2022/09/11 06:36:11;;;;;;;41.33;23.50;;;;;;;16.48;100.00;102032.59;5010568;28;20022;-66
2022/09/11 06:38:37;;;;;;;53.20;28.02;;;;;;;16.58;100.00;102035.72;5011494;28;20061;-67
2022/09/11 06:41:04;;;;;;;52.83;28.20;;;;;;;16.68;100.00;102037.09;5010782;28;20050;-65
2022/09/11 06:43:30;;;;;;;53.08;29.17;;;;;;;16.81;100.00;102036.59;5010201;28;20025;-66
2022/09/11 06:46:03;;;;;;;56.85;30.33;;;;;;;16.92;100.00;102025.50;5010634;28;20092;-67
2022/09/11 06:48:29;;;;;;;51.97;26.65;;;;;;;17.09;100.00;102029.25;5010940;28;20404;-66
2022/09/11 06:50:56;;;;;;;45.60;25.83;;;;;;;17.26;100.00;102031.22;5010993;28;20021;-67
2022/09/11 06:53:21;;;;;;;52.80;28.58;;;;;;;17.39;100.00;102032.41;5009924;28;20468;-68
2022/09/11 06:55:46;;;;;;;71.57;34.95;;;;;;;17.45;100.00;102031.25;5009883;28;20069;-68
2022/09/11 06:58:11;;;;;;;70.50;36.65;;;;;;;17.52;100.00;102034.53;5010385;28;20030;-66
2022/09/11 07:00:37;;;;;;;71.50;36.15;;;;;;;17.62;100.00;102032.31;5009369;28;20042;-66
2022/09/11 07:03:03;;;;;;;65.38;34.00;;;;;;;17.74;100.00;102033.56;5002512;28;20025;-67
2022/09/11 07:05:29;;;;;;;61.75;32.35;;;;;;;17.90;100.00;102031.94;5009989;28;20049;-66
2022/09/11 07:07:56;;;;;;;57.03;32.55;;;;;;;18.04;100.00;102033.09;5014961;28;20056;-67
2022/09/11 07:10:22;;;;;;;47.33;28.50;;;;;;;18.15;100.00;102029.97;5011008;28;20021;-67
2022/09/11 07:12:47;;;;;;;55.15;31.67;;;;;;;18.14;100.00;102042.44;5008821;28;20080;-66
2022/09/11 07:15:13;;;;;;;51.40;30.77;;;;;;;18.17;100.00;102039.63;5011189;28;20090;-67
2022/09/11 07:17:38;;;;;;;58.17;30.95;;;;;;;18.26;100.00;102037.44;5009992;28;20033;-69
2022/09/11 07:20:05;;;;;;;44.47;26.58;;;;;;;18.42;100.00;102043.78;5009696;28;20026;-68
2022/09/11 07:22:30;;;;;;;44.20;27.08;;;;;;;18.60;100.00;102041.13;5010638;28;20050;-69
2022/09/11 07:24:56;;;;;;;44.58;27.92;;;;;;;18.70;99.57;102049.56;5011554;28;20433;-67
2022/09/11 07:27:22;;;;;;;36.72;25.30;;;;;;;18.76;99.76;102056.41;5009540;28;20493;-66
2022/09/11 07:29:47;;;;;;;41.55;29.13;;;;;;;18.79;99.43;102061.59;5010035;28;20025;-67
2022/09/11 07:32:14;;;;;;;44.78;29.38;;;;;;;18.82;99.68;102064.97;5009413;28;20373;-67
2022/09/11 07:34:40;;;;;;;33.53;22.98;;;;;;;18.94;99.32;102071.50;5008425;28;20103;-67
2022/09/11 07:37:05;;;;;;;35.85;24.08;;;;;;;19.02;98.77;102070.28;5008846;28;20449;-66
2022/09/11 07:39:30;;;;;;;29.50;22.25;;;;;;;19.19;97.58;102066.78;5008140;28;20044;-65
2022/09/11 07:41:56;;;;;;;33.53;22.33;;;;;;;19.24;97.02;102071.88;5010084;28;20075;-69
2022/09/11 07:44:22;;;;;;;30.33;21.85;;;;;;;19.35;95.73;102069.50;5009302;28;20022;-68
2022/09/11 07:46:48;;;;;;;30.05;24.23;;;;;;;19.26;96.19;102073.53;4992306;28;20485;-67
2022/09/11 07:49:14;;;;;;;30.20;21.38;;;;;;;19.35;96.25;102069.50;5009630;28;20026;-67
2022/09/11 07:51:39;;;;;;;33.95;23.88;;;;;;;19.42;95.72;102073.59;5008298;28;20575;-67
2022/09/11 07:54:04;;;;;;;32.83;24.80;;;;;;;19.55;95.30;102071.16;5009143;28;20033;-67
2022/09/11 07:56:30;;;;;;;30.77;24.10;;;;;;;19.62;95.03;102071.69;5008908;28;20075;-65
2022/09/11 07:58:56;;;;;;;33.92;23.67;;;;;;;19.70;94.83;102072.16;5009449;28;20037;-67
2022/09/11 08:01:28;;;;;;;27.15;20.20;;;;;;;19.92;94.35;102073.66;5007656;28;20030;-63
2022/09/11 08:03:57;;;;;;;24.27;19.17;;;;;;;19.96;93.73;102069.03;5009510;28;20029;-65
2022/09/11 08:06:23;;;;;;;20.92;17.88;;;;;;;20.17;90.54;102082.19;5008744;28;20037;-66
2022/09/11 08:09:04;;;;;;;21.48;18.05;;;;;;;20.07;90.65;102071.13;5008925;28;20115;-64
2022/09/11 08:11:30;;;;;;;14.52;10.52;;;;;;;20.00;88.16;102075.94;5008687;28;20041;-65
2022/09/11 08:13:56;;;;;;;10.23;8.63;;;;;;;20.06;86.03;102077.44;5008907;28;20036;-65
2022/09/11 08:16:24;;;;;;;14.13;8.18;;;;;;;20.31;86.49;102076.06;5008892;28;20034;-66
2022/09/11 08:18:50;;;;;;;21.17;12.23;;;;;;;20.36;86.00;102079.34;5017836;28;20031;-65
2022/09/11 08:21:16;;;;;;;11.40;8.40;;;;;;;20.39;84.93;102084.53;5018285;28;20029;-65
2022/09/11 08:23:43;;;;;;;9.73;6.43;;;;;;;20.50;84.25;102091.09;5020781;28;20403;-65
2022/09/11 08:26:09;;;;;;;7.85;7.03;;;;;;;20.51;83.71;102087.47;5028162;28;20951;-65
2022/09/11 08:28:36;;;;;;;13.32;8.68;;;;;;;20.47;83.55;102084.13;5028611;28;20479;-65
2022/09/11 08:31:02;;;;;;;11.02;7.13;;;;;;;20.63;83.03;102086.78;5015670;28;20456;-65
2022/09/11 08:33:28;;;;;;;9.50;7.45;;;;;;;20.72;82.73;102082.72;5027616;28;20065;-66
2022/09/11 08:35:54;;;;;;;8.07;5.82;;;;;;;20.84;82.42;102087.34;5028070;28;20537;-64
2022/09/11 08:38:19;;;;;;;13.10;6.85;;;;;;;21.01;81.76;102090.03;5020595;28;20056;-64
2022/09/11 08:40:45;;;;;;;6.72;4.78;;;;;;;21.17;81.21;102090.00;5008499;28;20080;-66
2022/09/11 08:43:19;;;;;;;6.72;5.13;;;;;;;21.24;80.89;102085.97;5008276;28;20245;-65
2022/09/11 08:45:45;;;;;;;8.73;4.55;;;;;;;21.21;79.15;102096.88;4974801;28;20392;-66
2022/09/11 08:48:12;;;;;;;7.28;4.15;;;;;;;21.36;79.00;102091.56;5007384;28;20376;-65
2022/09/11 08:50:40;;;;;;;8.20;3.80;;;;;;;21.42;77.30;102091.19;5012118;28;20077;-65
2022/09/11 08:53:11;;;;;;;5.32;3.22;;;;;;;21.26;76.80;102094.81;4994688;28;20033;-65
2022/09/11 08:55:39;;;;;;;5.50;3.17;;;;;;;21.48;77.10;102089.94;5025705;28;20464;-65
2022/09/11 08:58:13;;;;;;;5.90;3.23;;;;;;;21.56;76.42;102093.03;5014031;28;20056;-64
2022/09/11 09:00:57;;;;;;;8.73;3.80;;;;;;;21.82;76.18;102095.94;5012300;28;20069;-64
2022/09/11 09:03:37;;;;;;;8.95;3.90;;;;;;;21.86;75.10;102091.28;5011733;28;20045;-66
2022/09/11 09:06:24;;;;;;;8.00;3.35;;;;;;;21.91;74.69;102095.38;4994620;28;20038;-65
2022/09/11 09:09:22;;;;;;;9.93;3.65;;;;;;;21.89;75.31;102102.69;5011641;28;20030;-67
2022/09/11 09:12:05;;;;;;;6.07;3.63;;;;;;;21.61;75.27;102103.50;5010020;28;20490;-65
2022/09/11 09:14:33;;;;;;;7.88;3.05;;;;;;;21.73;74.14;102108.09;5011576;28;20121;-64
2022/09/11 09:17:11;;;;;;;5.75;3.30;;;;;;;22.05;73.32;102105.25;5018999;28;20021;-66
2022/09/11 09:19:41;;;;;;;6.13;2.78;;;;;;;22.11;72.75;102104.00;5025771;28;20083;-65
2022/09/11 09:22:11;;;;;;;3.38;2.38;;;;;;;22.20;73.35;102108.78;5013910;28;20022;-65
2022/09/11 09:24:41;;;;;;;6.88;2.95;;;;;;;21.86;73.55;102110.91;5030448;28;20026;-66
2022/09/11 09:27:15;;;;;;;7.30;3.00;;;;;;;21.84;73.69;102111.00;5025205;28;20468;-65
2022/09/11 09:29:40;;;;;;;7.20;2.50;;;;;;;22.20;72.45;102107.91;4991682;28;20032;-68
2022/09/11 09:32:11;;;;;;;6.18;2.60;;;;;;;22.58;71.89;102111.81;4993979;28;20104;-65
2022/09/11 09:34:39;;;;;;;5.15;2.72;;;;;;;22.77;71.69;102102.53;4993195;28;20030;-65
2022/09/11 09:37:12;;;;;;;9.55;3.28;;;;;;;22.94;71.18;102113.03;5011400;28;20026;-65
2022/09/11 09:39:37;;;;;;;5.00;2.78;;;;;;;23.37;69.96;102112.94;5005966;28;20028;-66
2022/09/11 09:42:37;;;;;;;4.93;2.75;;;;;;;23.61;68.85;102107.69;4993642;28;20022;-64
2022/09/11 09:45:23;;;;;;;6.07;3.30;;;;;;;23.77;68.08;102112.00;5009988;28;20087;-66
2022/09/11 09:47:48;;;;;;;8.23;2.90;;;;;;;23.66;68.40;102110.91;5011358;28;20506;-63
2022/09/11 09:50:20;;;;;;;11.15;3.25;;;;;;;23.53;67.10;102107.34;5011245;28;20029;-64
2022/09/11 09:52:47;;;;;;;8.18;3.30;;;;;;;23.64;67.63;102110.19;5006968;28;20049;-65
2022/09/11 09:55:15;;;;;;;8.23;3.25;;;;;;;23.83;67.23;102109.75;5009997;28;20022;-65
2022/09/11 09:57:42;;;;;;;7.65;3.40;;;;;;;23.40;69.08;102118.13;5010607;28;20026;-65
2022/09/11 10:00:11;;;;;;;7.50;3.03;;;;;;;23.38;68.54;102106.63;4992661;28;20050;-65
2022/09/11 10:02:39;;;;;;;8.63;2.83;;;;;;;23.69;68.67;102108.00;5010475;28;20018;-66
2022/09/11 10:05:27;;;;;;;6.78;3.10;;;;;;;23.51;67.63;102112.00;5010663;28;20030;-66
2022/09/11 10:07:53;;;;;;;5.35;2.70;;;;;;;23.71;66.31;102103.41;5008287;28;20084;-65
2022/09/11 10:10:21;;;;;;;7.68;2.50;;;;;;;24.01;64.42;102111.22;5009669;28;20373;-64
2022/09/11 10:12:47;;;;;;;4.32;2.35;;;;;;;24.07;64.08;102108.09;5013686;28;20514;-65
2022/09/11 10:15:19;;;;;;;5.72;2.65;;;;;;;23.81;65.41;102106.28;5010647;28;20087;-66
2022/09/11 10:17:44;;;;;;;12.88;3.08;;;;;;;23.76;65.64;102104.88;5013341;28;20029;-65
2022/09/11 10:20:30;;;;;;;5.18;2.40;;;;;;;24.06;64.17;102106.38;5010217;28;20038;-68
2022/09/11 10:23:25;;;;;;;4.93;2.42;;;;;;;24.11;63.40;102101.53;5009796;28;20030;-66
2022/09/11 10:25:50;;;;;;;6.63;3.00;;;;;;;23.62;65.50;102095.97;5029514;28;20017;-65
2022/09/11 10:28:18;;;;;;;5.15;2.67;;;;;;;23.57;66.62;102100.81;5012575;28;20128;-65
2022/09/11 10:31:02;;;;;;;5.00;2.45;;;;;;;23.83;65.28;102098.09;5009718;28;20029;-65
2022/09/11 10:33:34;;;;;;;3.28;2.10;;;;;;;23.72;65.32;102099.72;5009726;28;20029;-65
2022/09/11 10:36:02;;;;;;;4.38;2.22;;;;;;;23.62;66.10;102097.81;5029958;28;20452;-65
2022/09/11 10:38:34;;;;;;;3.42;2.40;;;;;;;23.80;66.06;102098.31;5018023;28;20114;-66
2022/09/11 10:41:08;;;;;;;3.08;2.10;;;;;;;24.18;65.79;102092.06;5010778;28;20455;-65
2022/09/11 10:43:46;;;;;;;3.42;2.20;;;;;;;24.60;64.96;102097.06;5008293;28;20049;-65
2022/09/11 10:46:17;;;;;;;4.45;2.00;;;;;;;25.09;64.09;102090.84;5010388;28;20061;-65
2022/09/11 10:48:53;;;;;;;4.22;2.17;;;;;;;24.83;63.28;102090.97;5008823;28;20022;-65
2022/09/11 10:51:19;;;;;;;4.72;2.25;;;;;;;25.16;61.56;102081.28;5009115;28;20054;-65
2022/09/11 10:54:15;;;;;;;6.38;2.15;;;;;;;25.20;62.83;102093.56;5009295;28;20069;-66
2022/09/11 10:57:28;;;;;;;4.22;1.98;;;;;;;25.41;62.01;102094.72;5009050;28;20025;-64
2022/09/11 11:00:19;;;;;;;5.28;2.30;;;;;;;25.39;61.17;102093.97;5001953;28;20038;-66
2022/09/11 11:02:52;;;;;;;4.55;2.10;;;;;;;25.43;61.31;102088.22;5009151;28;20034;-66
2022/09/11 11:05:25;;;;;;;7.55;2.38;;;;;;;25.44;59.77;102089.97;4990441;28;20121;-66
2022/09/11 11:08:12;;;;;;;2.63;1.77;;;;;;;25.73;60.22;102080.53;4992377;28;20054;-66
2022/09/11 11:10:54;;;;;;;5.57;2.33;;;;;;;25.86;58.32;102089.38;5009005;28;20033;-66
2022/09/11 11:13:38;;;;;;;4.45;2.50;;;;;;;25.73;59.17;102089.50;5003094;28;20041;-67
2022/09/11 11:16:19;;;;;;;3.28;1.92;;;;;;;25.45;59.41;102080.88;5008340;28;20021;-64
2022/09/11 11:19:06;;;;;;;4.13;1.92;;;;;;;25.75;57.14;102081.28;4992430;28;20038;-67
2022/09/11 11:21:41;;;;;;;3.63;1.92;;;;;;;25.76;57.07;102084.88;4992042;28;20034;-65
2022/09/11 11:24:26;;;;;;;3.92;2.10;;;;;;;26.03;58.20;102079.06;5008520;28;20136;-65